sensor_id;sensor_type;location;lat;lon;timestamp;pressure;altitude;pressure_sealevel;temperature;humidity
80405;BME280;69733;48.744;9.176;2023-07-20T00:00:49;96618.72;;;18.31;51.99
80405;BME280;69733;48.744;9.176;2023-07-20T00:03:19;96622.53;;;18.25;51.84
80405;BME280;69733;48.744;9.176;2023-07-20T00:05:48;96629.84;;;18.20;51.87
80405;BME280;69733;48.744;9.176;2023-07-20T00:08:14;96619.66;;;18.12;52.00
80405;BME280;69733;48.744;9.176;2023-07-20T00:10:41;96617.31;;;18.05;52.23
80405;BME280;69733;48.744;9.176;2023-07-20T00:13:06;96616.81;;;17.98;52.32
80405;BME280;69733;48.744;9.176;2023-07-20T00:15:32;96622.22;;;17.93;52.21
80405;BME280;69733;48.744;9.176;2023-07-20T00:17:57;96617.16;;;17.86;52.35
80405;BME280;69733;48.744;9.176;2023-07-20T00:20:27;96621.22;;;17.79;52.30
80405;BME280;69733;48.744;9.176;2023-07-20T00:22:52;96624.47;;;17.76;52.22
80405;BME280;69733;48.744;9.176;2023-07-20T00:25:18;96619.66;;;17.73;52.08
80405;BME280;69733;48.744;9.176;2023-07-20T00:27:43;96622.34;;;17.68;52.56
80405;BME280;69733;48.744;9.176;2023-07-20T00:30:09;96614.34;;;17.63;52.07
80405;BME280;69733;48.744;9.176;2023-07-20T00:32:35;96624.56;;;17.56;52.37
80405;BME280;69733;48.744;9.176;2023-07-20T00:35:00;96620.81;;;17.52;52.27
80405;BME280;69733;48.744;9.176;2023-07-20T00:37:25;96619.50;;;17.44;52.19
80405;BME280;69733;48.744;9.176;2023-07-20T00:39:51;96620.31;;;17.39;52.34
80405;BME280;69733;48.744;9.176;2023-07-20T00:42:16;96613.91;;;17.35;52.30
80405;BME280;69733;48.744;9.176;2023-07-20T00:44:44;96623.84;;;17.30;52.05
80405;BME280;69733;48.744;9.176;2023-07-20T00:47:10;96620.09;;;17.26;52.55
80405;BME280;69733;48.744;9.176;2023-07-20T00:49:36;96625.22;;;17.22;52.51
80405;BME280;69733;48.744;9.176;2023-07-20T00:52:06;96627.13;;;17.17;52.55
80405;BME280;69733;48.744;9.176;2023-07-20T00:54:52;96624.47;;;17.12;52.92
80405;BME280;69733;48.744;9.176;2023-07-20T00:57:18;96628.00;;;17.07;53.00
80405;BME280;69733;48.744;9.176;2023-07-20T00:59:44;96632.00;;;17.05;53.00
80405;BME280;69733;48.744;9.176;2023-07-20T01:02:10;96634.72;;;17.00;53.23
80405;BME280;69733;48.744;9.176;2023-07-20T01:04:35;96639.84;;;16.96;53.49
80405;BME280;69733;48.744;9.176;2023-07-20T01:07:09;96637.16;;;16.91;53.35
80405;BME280;69733;48.744;9.176;2023-07-20T01:10:03;96637.19;;;16.86;53.71
80405;BME280;69733;48.744;9.176;2023-07-20T01:12:41;96630.19;;;16.80;53.61
80405;BME280;69733;48.744;9.176;2023-07-20T01:15:07;96630.22;;;16.75;53.69
80405;BME280;69733;48.744;9.176;2023-07-20T01:17:34;96634.50;;;16.71;54.27
80405;BME280;69733;48.744;9.176;2023-07-20T01:19:59;96630.75;;;16.67;54.16
80405;BME280;69733;48.744;9.176;2023-07-20T01:25:22;96629.41;;;16.59;54.31
80405;BME280;69733;48.744;9.176;2023-07-20T01:33:03;96622.41;;;16.48;54.31
80405;BME280;69733;48.744;9.176;2023-07-20T01:35:30;96624.28;;;16.42;54.66
80405;BME280;69733;48.744;9.176;2023-07-20T01:37:56;96622.16;;;16.39;54.62
80405;BME280;69733;48.744;9.176;2023-07-20T01:40:23;96620.78;;;16.37;54.63
80405;BME280;69733;48.744;9.176;2023-07-20T01:42:50;96623.22;;;16.33;54.62
80405;BME280;69733;48.744;9.176;2023-07-20T01:45:17;96627.25;;;16.31;54.57
80405;BME280;69733;48.744;9.176;2023-07-20T01:47:42;96618.91;;;16.27;54.65
80405;BME280;69733;48.744;9.176;2023-07-20T01:50:08;96619.97;;;16.26;54.76
80405;BME280;69733;48.744;9.176;2023-07-20T01:52:33;96625.63;;;16.25;54.89
80405;BME280;69733;48.744;9.176;2023-07-20T01:54:59;96617.84;;;16.23;55.13
80405;BME280;69733;48.744;9.176;2023-07-20T01:57:24;96612.75;;;16.22;54.77
80405;BME280;69733;48.744;9.176;2023-07-20T01:59:49;96622.13;;;16.19;54.48
80405;BME280;69733;48.744;9.176;2023-07-20T02:02:15;96619.19;;;16.16;54.87
80405;BME280;69733;48.744;9.176;2023-07-20T02:04:40;96624.03;;;16.14;54.94
80405;BME280;69733;48.744;9.176;2023-07-20T02:07:05;96628.06;;;16.11;55.06
80405;BME280;69733;48.744;9.176;2023-07-20T02:09:31;96630.47;;;16.08;55.20
80405;BME280;69733;48.744;9.176;2023-07-20T02:11:56;96634.47;;;16.05;55.27
80405;BME280;69733;48.744;9.176;2023-07-20T02:14:21;96624.56;;;16.01;55.31
80405;BME280;69733;48.744;9.176;2023-07-20T02:16:48;96633.91;;;15.98;55.18
80405;BME280;69733;48.744;9.176;2023-07-20T02:19:17;96634.22;;;15.97;55.31
80405;BME280;69733;48.744;9.176;2023-07-20T02:21:42;96629.38;;;15.93;55.37
80405;BME280;69733;48.744;9.176;2023-07-20T02:24:07;96630.69;;;15.91;55.41
80405;BME280;69733;48.744;9.176;2023-07-20T02:26:32;96626.16;;;15.86;55.70
80405;BME280;69733;48.744;9.176;2023-07-20T02:28:58;96626.94;;;15.82;55.56
80405;BME280;69733;48.744;9.176;2023-07-20T02:31:23;96628.53;;;15.78;55.75
80405;BME280;69733;48.744;9.176;2023-07-20T02:33:48;96628.00;;;15.76;55.82
80405;BME280;69733;48.744;9.176;2023-07-20T02:36:14;96630.41;;;15.72;55.95
80405;BME280;69733;48.744;9.176;2023-07-20T02:38:39;96624.75;;;15.69;56.14
80405;BME280;69733;48.744;9.176;2023-07-20T02:41:04;96624.22;;;15.67;56.14
80405;BME280;69733;48.744;9.176;2023-07-20T02:43:30;96631.72;;;15.65;56.21
80405;BME280;69733;48.744;9.176;2023-07-20T02:45:55;96632.25;;;15.62;56.35
80405;BME280;69733;48.744;9.176;2023-07-20T02:48:20;96637.34;;;15.58;56.60
80405;BME280;69733;48.744;9.176;2023-07-20T02:50:45;96638.66;;;15.56;56.47
80405;BME280;69733;48.744;9.176;2023-07-20T02:53:11;96632.75;;;15.54;56.38
80405;BME280;69733;48.744;9.176;2023-07-20T02:55:37;96635.97;;;15.51;56.55
80405;BME280;69733;48.744;9.176;2023-07-20T02:58:02;96640.22;;;15.47;56.54
80405;BME280;69733;48.744;9.176;2023-07-20T03:00:27;96648.78;;;15.43;56.56
80405;BME280;69733;48.744;9.176;2023-07-20T03:02:53;96649.84;;;15.42;56.76
80405;BME280;69733;48.744;9.176;2023-07-20T03:05:21;96640.47;;;15.40;56.80
80405;BME280;69733;48.744;9.176;2023-07-20T03:07:47;96656.00;;;15.38;56.81
80405;BME280;69733;48.744;9.176;2023-07-20T03:10:12;96640.72;;;15.33;56.93
80405;BME280;69733;48.744;9.176;2023-07-20T03:12:38;96640.97;;;15.32;56.98
80405;BME280;69733;48.744;9.176;2023-07-20T03:15:03;96642.81;;;15.31;57.05
80405;BME280;69733;48.744;9.176;2023-07-20T03:17:29;96648.47;;;15.30;57.62
80405;BME280;69733;48.744;9.176;2023-07-20T03:19:54;96646.84;;;15.29;57.08
80405;BME280;69733;48.744;9.176;2023-07-20T03:22:20;96647.91;;;15.28;57.47
80405;BME280;69733;48.744;9.176;2023-07-20T03:24:46;96645.78;;;15.30;57.35
80405;BME280;69733;48.744;9.176;2023-07-20T03:27:12;96653.03;;;15.29;57.52
80405;BME280;69733;48.744;9.176;2023-07-20T03:29:37;96647.91;;;15.28;57.75
80405;BME280;69733;48.744;9.176;2023-07-20T03:32:03;96650.59;;;15.28;57.52
80405;BME280;69733;48.744;9.176;2023-07-20T03:34:28;96648.72;;;15.28;57.83
80405;BME280;69733;48.744;9.176;2023-07-20T03:36:53;96652.47;;;15.27;57.96
80405;BME280;69733;48.744;9.176;2023-07-20T03:39:19;96657.00;;;15.27;58.07
80405;BME280;69733;48.744;9.176;2023-07-20T03:41:44;96659.97;;;15.25;58.12
80405;BME280;69733;48.744;9.176;2023-07-20T03:44:10;96662.38;;;15.22;58.11
80405;BME280;69733;48.744;9.176;2023-07-20T03:46:35;96668.78;;;15.21;58.22
80405;BME280;69733;48.744;9.176;2023-07-20T03:49:00;96662.63;;;15.20;58.14
80405;BME280;69733;48.744;9.176;2023-07-20T03:51:26;96654.31;;;15.22;58.50
80405;BME280;69733;48.744;9.176;2023-07-20T03:53:51;96655.66;;;15.24;58.43
80405;BME280;69733;48.744;9.176;2023-07-20T03:56:17;96657.00;;;15.27;58.46
80405;BME280;69733;48.744;9.176;2023-07-20T03:58:42;96649.00;;;15.32;58.55
80405;BME280;69733;48.744;9.176;2023-07-20T04:01:08;96658.94;;;15.36;58.49
80405;BME280;69733;48.744;9.176;2023-07-20T04:03:35;96667.81;;;15.42;58.60
80405;BME280;69733;48.744;9.176;2023-07-20T04:06:00;96660.34;;;15.49;58.54
80405;BME280;69733;48.744;9.176;2023-07-20T04:08:26;96660.38;;;15.54;58.77
80405;BME280;69733;48.744;9.176;2023-07-20T04:10:51;96661.19;;;15.60;58.73
80405;BME280;69733;48.744;9.176;2023-07-20T04:13:17;96668.22;;;15.66;58.78
80405;BME280;69733;48.744;9.176;2023-07-20T04:15:42;96676.81;;;15.73;58.87
80405;BME280;69733;48.744;9.176;2023-07-20T04:18:08;96676.28;;;15.81;58.63
80405;BME280;69733;48.744;9.176;2023-07-20T04:20:33;96679.28;;;15.89;58.73
80405;BME280;69733;48.744;9.176;2023-07-20T04:22:58;96675.56;;;16.01;58.86
80405;BME280;69733;48.744;9.176;2023-07-20T04:25:24;96673.69;;;16.11;58.62
80405;BME280;69733;48.744;9.176;2023-07-20T04:27:49;96669.13;;;16.22;58.42
80405;BME280;69733;48.744;9.176;2023-07-20T04:30:17;96676.91;;;16.33;58.47
80405;BME280;69733;48.744;9.176;2023-07-20T04:32:45;96673.19;;;16.50;58.38
80405;BME280;69733;48.744;9.176;2023-07-20T04:35:44;96663.53;;;16.64;58.59
80405;BME280;69733;48.744;9.176;2023-07-20T04:38:03;96671.03;;;16.82;58.24
80405;BME280;69733;48.744;9.176;2023-07-20T04:40:28;96666.16;;;16.94;58.14
80405;BME280;69733;48.744;9.176;2023-07-20T04:42:53;96665.59;;;17.12;57.91
80405;BME280;69733;48.744;9.176;2023-07-20T04:45:18;96670.38;;;17.30;57.91
80405;BME280;69733;48.744;9.176;2023-07-20T04:47:44;96666.81;;;17.50;57.80
80405;BME280;69733;48.744;9.176;2023-07-20T04:50:09;96667.84;;;17.69;57.37
80405;BME280;69733;48.744;9.176;2023-07-20T04:52:35;96669.63;;;17.89;57.40
80405;BME280;69733;48.744;9.176;2023-07-20T04:55:00;96672.72;;;18.16;57.05
80405;BME280;69733;48.744;9.176;2023-07-20T04:57:25;96677.28;;;18.60;56.30
80405;BME280;69733;48.744;9.176;2023-07-20T04:59:51;96675.97;;;19.10;55.99
80405;BME280;69733;48.744;9.176;2023-07-20T05:02:17;96669.47;;;19.39;55.83
80405;BME280;69733;48.744;9.176;2023-07-20T05:04:42;96669.81;;;19.57;55.85
80405;BME280;69733;48.744;9.176;2023-07-20T05:07:07;96670.22;;;19.69;55.73
80405;BME280;69733;48.744;9.176;2023-07-20T05:09:32;96670.28;;;19.64;56.08
80405;BME280;69733;48.744;9.176;2023-07-20T05:11:58;96670.38;;;19.59;55.90
80405;BME280;69733;48.744;9.176;2023-07-20T05:14:23;96669.31;;;19.55;56.10
80405;BME280;69733;48.744;9.176;2023-07-20T05:16:49;96663.56;;;19.61;55.99
80405;BME280;69733;48.744;9.176;2023-07-20T05:19:14;96669.19;;;19.65;55.94
80405;BME280;69733;48.744;9.176;2023-07-20T05:21:39;96668.13;;;19.66;55.72
80405;BME280;69733;48.744;9.176;2023-07-20T05:24:05;96668.03;;;19.71;55.53
80405;BME280;69733;48.744;9.176;2023-07-20T05:26:31;96666.66;;;19.73;55.77
80405;BME280;69733;48.744;9.176;2023-07-20T05:28:56;96670.59;;;19.81;55.58
80405;BME280;69733;48.744;9.176;2023-07-20T05:31:21;96667.75;;;19.91;55.35
80405;BME280;69733;48.744;9.176;2023-07-20T05:33:47;96669.53;;;20.01;55.27
80405;BME280;69733;48.744;9.176;2023-07-20T05:36:12;96663.41;;;20.14;54.98
80405;BME280;69733;48.744;9.176;2023-07-20T05:38:38;96670.53;;;20.28;54.90
80405;BME280;69733;48.744;9.176;2023-07-20T05:41:03;96664.72;;;20.35;54.97
80405;BME280;69733;48.744;9.176;2023-07-20T05:43:29;96661.88;;;20.45;54.53
80405;BME280;69733;48.744;9.176;2023-07-20T05:45:55;96664.50;;;20.50;54.11
80405;BME280;69733;48.744;9.176;2023-07-20T05:48:20;96665.81;;;20.53;54.16
80405;BME280;69733;48.744;9.176;2023-07-20T05:50:45;96662.81;;;20.54;53.89
80405;BME280;69733;48.744;9.176;2023-07-20T05:53:11;96666.53;;;20.58;53.97
80405;BME280;69733;48.744;9.176;2023-07-20T05:55:36;96667.25;;;20.64;53.79
80405;BME280;69733;48.744;9.176;2023-07-20T05:58:02;96667.91;;;20.74;53.33
80405;BME280;69733;48.744;9.176;2023-07-20T06:00:29;96672.31;;;20.84;53.29
80405;BME280;69733;48.744;9.176;2023-07-20T06:02:54;96675.22;;;20.88;53.01
80405;BME280;69733;48.744;9.176;2023-07-20T06:05:21;96669.44;;;20.94;52.98
80405;BME280;69733;48.744;9.176;2023-07-20T06:07:46;96674.38;;;21.06;52.77
80405;BME280;69733;48.744;9.176;2023-07-20T06:10:12;96678.63;;;21.12;52.31
80405;BME280;69733;48.744;9.176;2023-07-20T06:12:37;96677.66;;;21.21;52.04
80405;BME280;69733;48.744;9.176;2023-07-20T06:15:12;96668.53;;;21.31;51.85
80405;BME280;69733;48.744;9.176;2023-07-20T06:17:51;96675.84;;;21.58;51.31
80405;BME280;69733;48.744;9.176;2023-07-20T06:20:17;96681.34;;;21.80;50.95
80405;BME280;69733;48.744;9.176;2023-07-20T06:22:42;96681.28;;;21.99;50.55
80405;BME280;69733;48.744;9.176;2023-07-20T06:25:08;96677.75;;;21.98;50.48
80405;BME280;69733;48.744;9.176;2023-07-20T06:27:33;96685.19;;;21.93;50.68
80405;BME280;69733;48.744;9.176;2023-07-20T06:29:58;96680.06;;;21.91;50.55
80405;BME280;69733;48.744;9.176;2023-07-20T06:32:24;96674.38;;;21.93;50.37
80405;BME280;69733;48.744;9.176;2023-07-20T06:34:49;96684.19;;;22.02;50.56
80405;BME280;69733;48.744;9.176;2023-07-20T06:37:14;96673.09;;;22.12;50.03
80405;BME280;69733;48.744;9.176;2023-07-20T06:39:40;96673.38;;;22.24;49.77
80405;BME280;69733;48.744;9.176;2023-07-20T06:42:05;96674.16;;;22.39;49.42
80405;BME280;69733;48.744;9.176;2023-07-20T06:44:31;96672.19;;;22.53;48.98
80405;BME280;69733;48.744;9.176;2023-07-20T06:46:56;96674.59;;;22.99;48.50
80405;BME280;69733;48.744;9.176;2023-07-20T06:49:27;96676.06;;;23.36;48.11
80405;BME280;69733;48.744;9.176;2023-07-20T06:51:53;96672.69;;;23.61;47.68
80405;BME280;69733;48.744;9.176;2023-07-20T06:54:18;96680.06;;;23.77;47.61
80405;BME280;69733;48.744;9.176;2023-07-20T06:56:44;96675.81;;;23.94;47.24
80405;BME280;69733;48.744;9.176;2023-07-20T06:59:09;96679.47;;;23.89;47.15
80405;BME280;69733;48.744;9.176;2023-07-20T07:01:34;96678.03;;;23.92;47.12
80405;BME280;69733;48.744;9.176;2023-07-20T07:04:00;96670.69;;;23.92;46.88
80405;BME280;69733;48.744;9.176;2023-07-20T07:06:25;96675.56;;;24.38;46.29
80405;BME280;69733;48.744;9.176;2023-07-20T07:08:53;96671.66;;;25.16;45.10
80405;BME280;69733;48.744;9.176;2023-07-20T07:11:18;96670.50;;;25.72;44.29
80405;BME280;69733;48.744;9.176;2023-07-20T07:13:43;96663.09;;;26.11;43.55
80405;BME280;69733;48.744;9.176;2023-07-20T07:16:11;96665.56;;;26.66;43.09
80405;BME280;69733;48.744;9.176;2023-07-20T07:18:37;96664.25;;;27.50;41.54
80405;BME280;69733;48.744;9.176;2023-07-20T07:21:02;96657.19;;;28.22;41.05
80405;BME280;69733;48.744;9.176;2023-07-20T07:23:27;96656.06;;;28.90;40.15
80405;BME280;69733;48.744;9.176;2023-07-20T07:25:53;96656.88;;;29.34;38.82
80405;BME280;69733;48.744;9.176;2023-07-20T07:28:18;96662.09;;;29.71;38.34
80405;BME280;69733;48.744;9.176;2023-07-20T07:30:43;96657.38;;;30.18;37.77
80405;BME280;69733;48.744;9.176;2023-07-20T07:33:09;96654.09;;;30.47;36.82
80405;BME280;69733;48.744;9.176;2023-07-20T07:35:35;96651.47;;;30.93;36.30
80405;BME280;69733;48.744;9.176;2023-07-20T07:38:00;96652.56;;;31.49;34.93
80405;BME280;69733;48.744;9.176;2023-07-20T07:40:26;96652.38;;;31.84;34.48
80405;BME280;69733;48.744;9.176;2023-07-20T07:42:51;96651.47;;;32.03;33.72
80405;BME280;69733;48.744;9.176;2023-07-20T07:45:16;96656.59;;;32.27;33.18
80405;BME280;69733;48.744;9.176;2023-07-20T07:47:42;96660.81;;;32.47;32.68
80405;BME280;69733;48.744;9.176;2023-07-20T07:50:07;96657.16;;;32.40;31.78
80405;BME280;69733;48.744;9.176;2023-07-20T07:52:33;96651.34;;;32.45;31.55
80405;BME280;69733;48.744;9.176;2023-07-20T07:54:58;96651.72;;;32.73;30.88
80405;BME280;69733;48.744;9.176;2023-07-20T07:57:24;96646.13;;;33.03;30.18
80405;BME280;69733;48.744;9.176;2023-07-20T07:59:49;96646.28;;;33.14;29.74
80405;BME280;69733;48.744;9.176;2023-07-20T08:02:15;96647.91;;;33.18;29.60
80405;BME280;69733;48.744;9.176;2023-07-20T08:04:40;96651.94;;;33.28;29.16
80405;BME280;69733;48.744;9.176;2023-07-20T08:07:05;96649.09;;;33.58;28.27
80405;BME280;69733;48.744;9.176;2023-07-20T08:09:31;96644.75;;;34.04;27.96
80405;BME280;69733;48.744;9.176;2023-07-20T08:11:56;96652.09;;;33.86;28.08
80405;BME280;69733;48.744;9.176;2023-07-20T08:14:21;96654.59;;;34.05;27.37
80405;BME280;69733;48.744;9.176;2023-07-20T08:16:47;96654.13;;;33.92;27.15
80405;BME280;69733;48.744;9.176;2023-07-20T08:19:12;96646.59;;;33.86;27.44
80405;BME280;69733;48.744;9.176;2023-07-20T08:21:38;96652.13;;;33.89;27.00
80405;BME280;69733;48.744;9.176;2023-07-20T08:24:03;96650.75;;;34.17;26.76
80405;BME280;69733;48.744;9.176;2023-07-20T08:26:29;96651.34;;;33.89;26.91
80405;BME280;69733;48.744;9.176;2023-07-20T08:28:54;96646.97;;;33.88;26.63
80405;BME280;69733;48.744;9.176;2023-07-20T08:31:19;96642.03;;;34.11;25.92
80405;BME280;69733;48.744;9.176;2023-07-20T08:33:45;96646.22;;;33.94;25.71
80405;BME280;69733;48.744;9.176;2023-07-20T08:36:10;96638.91;;;33.25;25.68
80405;BME280;69733;48.744;9.176;2023-07-20T08:38:36;96642.81;;;32.57;25.91
80405;BME280;69733;48.744;9.176;2023-07-20T08:41:01;96654.59;;;32.54;25.47
80405;BME280;69733;48.744;9.176;2023-07-20T08:43:27;96651.88;;;31.79;25.57
80405;BME280;69733;48.744;9.176;2023-07-20T08:45:56;96650.47;;;31.43;26.32
80405;BME280;69733;48.744;9.176;2023-07-20T08:48:22;96648.22;;;31.48;26.31
80405;BME280;69733;48.744;9.176;2023-07-20T08:50:52;96649.25;;;31.40;25.83
80405;BME280;69733;48.744;9.176;2023-07-20T08:53:22;96646.00;;;31.12;26.43
80405;BME280;69733;48.744;9.176;2023-07-20T08:55:50;96642.19;;;30.78;26.55
80405;BME280;69733;48.744;9.176;2023-07-20T08:58:17;96647.53;;;30.52;27.03
80405;BME280;69733;48.744;9.176;2023-07-20T09:00:43;96651.44;;;31.08;26.77
80405;BME280;69733;48.744;9.176;2023-07-20T09:03:08;96648.66;;;31.73;26.48
80405;BME280;69733;48.744;9.176;2023-07-20T09:05:35;96634.41;;;32.46;26.28
80405;BME280;69733;48.744;9.176;2023-07-20T09:08:01;96631.22;;;33.08;26.25
80405;BME280;69733;48.744;9.176;2023-07-20T09:10:28;96637.59;;;33.56;25.50
80405;BME280;69733;48.744;9.176;2023-07-20T09:12:54;96637.16;;;33.90;25.14
80405;BME280;69733;48.744;9.176;2023-07-20T09:15:21;96626.78;;;34.31;24.62
80405;BME280;69733;48.744;9.176;2023-07-20T09:17:48;96626.63;;;34.75;24.26
80405;BME280;69733;48.744;9.176;2023-07-20T09:20:15;96629.47;;;35.04;23.99
80405;BME280;69733;48.744;9.176;2023-07-20T09:22:41;96628.16;;;34.66;23.48
80405;BME280;69733;48.744;9.176;2023-07-20T09:25:11;96631.06;;;34.18;23.65
80405;BME280;69733;48.744;9.176;2023-07-20T09:27:39;96626.00;;;34.38;23.70
80405;BME280;69733;48.744;9.176;2023-07-20T09:30:05;96629.88;;;35.09;23.10
80405;BME280;69733;48.744;9.176;2023-07-20T09:32:43;96622.69;;;34.87;22.84
80405;BME280;69733;48.744;9.176;2023-07-20T09:35:16;96624.25;;;34.77;22.76
80405;BME280;69733;48.744;9.176;2023-07-20T09:37:58;96628.25;;;34.15;22.78
80405;BME280;69733;48.744;9.176;2023-07-20T09:40:24;96631.91;;;33.34;23.15
80405;BME280;69733;48.744;9.176;2023-07-20T09:42:52;96624.41;;;32.61;23.64
80405;BME280;69733;48.744;9.176;2023-07-20T09:45:17;96636.44;;;31.97;24.22
80405;BME280;69733;48.744;9.176;2023-07-20T09:47:42;96636.41;;;31.48;24.33
80405;BME280;69733;48.744;9.176;2023-07-20T09:50:08;96635.88;;;30.97;24.31
80405;BME280;69733;48.744;9.176;2023-07-20T09:52:41;96634.00;;;31.01;24.81
80405;BME280;69733;48.744;9.176;2023-07-20T09:55:07;96632.09;;;31.24;25.02
80405;BME280;69733;48.744;9.176;2023-07-20T09:57:34;96633.63;;;31.67;24.62
80405;BME280;69733;48.744;9.176;2023-07-20T10:00:00;96626.91;;;31.91;24.20
80405;BME280;69733;48.744;9.176;2023-07-20T10:02:33;96626.75;;;32.33;23.71
80405;BME280;69733;48.744;9.176;2023-07-20T10:05:03;96617.50;;;32.78;23.71
80405;BME280;69733;48.744;9.176;2023-07-20T10:07:35;96615.94;;;33.14;23.35
80405;BME280;69733;48.744;9.176;2023-07-20T10:10:02;96614.69;;;33.08;23.67
80405;BME280;69733;48.744;9.176;2023-07-20T10:12:28;96615.41;;;32.68;23.86
80405;BME280;69733;48.744;9.176;2023-07-20T10:15:13;96620.69;;;32.20;23.84
80405;BME280;69733;48.744;9.176;2023-07-20T10:17:49;96614.84;;;32.55;23.64
80405;BME280;69733;48.744;9.176;2023-07-20T10:20:19;96610.72;;;33.05;23.52
80405;BME280;69733;48.744;9.176;2023-07-20T10:22:47;96606.50;;;33.15;23.53
80405;BME280;69733;48.744;9.176;2023-07-20T10:25:14;96601.78;;;33.15;23.14
80405;BME280;69733;48.744;9.176;2023-07-20T10:27:40;96608.19;;;32.89;23.50
80405;BME280;69733;48.744;9.176;2023-07-20T10:30:06;96598.84;;;32.34;23.27
80405;BME280;69733;48.744;9.176;2023-07-20T10:32:32;96597.38;;;32.14;23.76
80405;BME280;69733;48.744;9.176;2023-07-20T10:34:58;96592.19;;;32.39;23.94
80405;BME280;69733;48.744;9.176;2023-07-20T10:40:32;96588.31;;;32.14;23.90
80405;BME280;69733;48.744;9.176;2023-07-20T10:43:08;96591.09;;;31.87;24.24
80405;BME280;69733;48.744;9.176;2023-07-20T10:45:42;96585.75;;;31.26;24.42
80405;BME280;69733;48.744;9.176;2023-07-20T10:48:24;96579.88;;;31.05;24.06
80405;BME280;69733;48.744;9.176;2023-07-20T10:51:12;96584.78;;;31.15;24.22
80405;BME280;69733;48.744;9.176;2023-07-20T10:53:41;96581.47;;;30.87;24.51
80405;BME280;69733;48.744;9.176;2023-07-20T10:56:11;96578.84;;;30.71;24.55
80405;BME280;69733;48.744;9.176;2023-07-20T10:58:36;96572.63;;;30.55;24.70
80405;BME280;69733;48.744;9.176;2023-07-20T11:01:03;96574.25;;;30.40;24.73
80405;BME280;69733;48.744;9.176;2023-07-20T11:03:33;96570.72;;;30.01;25.12
80405;BME280;69733;48.744;9.176;2023-07-20T11:05:59;;;;29.46;
80405;BME280;69733;48.744;9.176;2023-07-20T11:08:42;96572.28;;;29.52;25.53
80405;BME280;69733;48.744;9.176;2023-07-20T11:11:24;96567.09;;;29.47;25.75
80405;BME280;69733;48.744;9.176;2023-07-20T11:14:29;96572.88;;;29.26;26.03
80405;BME280;69733;48.744;9.176;2023-07-20T11:17:11;96562.09;;;29.05;26.05
80405;BME280;69733;48.744;9.176;2023-07-20T11:19:36;96567.59;;;29.21;25.81
80405;BME280;69733;48.744;9.176;2023-07-20T11:22:04;96572.28;;;29.21;26.06
80405;BME280;69733;48.744;9.176;2023-07-20T11:24:32;96565.50;;;29.14;26.23
80405;BME280;69733;48.744;9.176;2023-07-20T11:26:57;96563.09;;;29.13;26.20
80405;BME280;69733;48.744;9.176;2023-07-20T11:29:23;96568.31;;;29.02;26.14
80405;BME280;69733;48.744;9.176;2023-07-20T11:31:51;96570.66;;;28.88;26.25
80405;BME280;69733;48.744;9.176;2023-07-20T11:34:17;96566.78;;;28.89;26.67
80405;BME280;69733;48.744;9.176;2023-07-20T11:36:45;96560.28;;;28.94;26.38
80405;BME280;69733;48.744;9.176;2023-07-20T11:39:12;96561.13;;;28.82;26.12
80405;BME280;69733;48.744;9.176;2023-07-20T11:41:38;96554.31;;;28.76;25.94
80405;BME280;69733;48.744;9.176;2023-07-20T11:44:05;96546.59;;;28.66;26.08
80405;BME280;69733;48.744;9.176;2023-07-20T11:46:32;96550.00;;;28.75;25.83
80405;BME280;69733;48.744;9.176;2023-07-20T11:48:58;96548.94;;;28.80;25.48
80405;BME280;69733;48.744;9.176;2023-07-20T11:51:31;96544.16;;;28.77;25.58
80405;BME280;69733;48.744;9.176;2023-07-20T11:53:57;96539.06;;;28.63;26.08
80405;BME280;69733;48.744;9.176;2023-07-20T11:56:24;96546.75;;;28.57;25.89
80405;BME280;69733;48.744;9.176;2023-07-20T11:58:49;96542.69;;;28.51;26.13
80405;BME280;69733;48.744;9.176;2023-07-20T12:01:15;96535.06;;;28.45;26.21
80405;BME280;69733;48.744;9.176;2023-07-20T12:03:43;96536.72;;;28.34;26.31
80405;BME280;69733;48.744;9.176;2023-07-20T12:06:09;96541.50;;;28.37;26.46
80405;BME280;69733;48.744;9.176;2023-07-20T12:08:38;96534.91;;;28.26;26.48
80405;BME280;69733;48.744;9.176;2023-07-20T12:11:04;96532.09;;;28.10;26.48
80405;BME280;69733;48.744;9.176;2023-07-20T12:13:43;96528.94;;;27.96;26.36
80405;BME280;69733;48.744;9.176;2023-07-20T12:16:16;96523.41;;;27.80;26.67
80405;BME280;69733;48.744;9.176;2023-07-20T12:18:42;96525.69;;;27.78;26.65
80405;BME280;69733;48.744;9.176;2023-07-20T12:21:08;96525.03;;;27.69;26.47
80405;BME280;69733;48.744;9.176;2023-07-20T12:23:41;96527.66;;;27.65;26.98
80405;BME280;69733;48.744;9.176;2023-07-20T12:26:08;96513.72;;;27.70;26.59
80405;BME280;69733;48.744;9.176;2023-07-20T12:28:39;96516.09;;;27.84;26.42
80405;BME280;69733;48.744;9.176;2023-07-20T12:31:06;96511.06;;;27.86;26.48
80405;BME280;69733;48.744;9.176;2023-07-20T12:33:32;96508.44;;;27.90;26.66
80405;BME280;69733;48.744;9.176;2023-07-20T12:35:57;96519.19;;;27.83;26.54
80405;BME280;69733;48.744;9.176;2023-07-20T12:38:24;96508.44;;;27.90;26.94
80405;BME280;69733;48.744;9.176;2023-07-20T12:40:50;96504.00;;;27.85;26.54
80405;BME280;69733;48.744;9.176;2023-07-20T12:43:16;96500.63;;;27.76;26.82
80405;BME280;69733;48.744;9.176;2023-07-20T12:45:41;96508.16;;;27.43;26.75
80405;BME280;69733;48.744;9.176;2023-07-20T12:48:07;96496.56;;;27.21;26.99
80405;BME280;69733;48.744;9.176;2023-07-20T12:50:32;96503.84;;;26.93;27.19
80405;BME280;69733;48.744;9.176;2023-07-20T12:52:58;96506.56;;;26.81;26.96
80405;BME280;69733;48.744;9.176;2023-07-20T12:55:23;96499.81;;;26.66;27.42
80405;BME280;69733;48.744;9.176;2023-07-20T12:57:48;96492.53;;;26.58;27.47
80405;BME280;69733;48.744;9.176;2023-07-20T13:00:15;96491.97;;;26.65;27.07
80405;BME280;69733;48.744;9.176;2023-07-20T13:02:41;96486.63;;;26.68;27.08
80405;BME280;69733;48.744;9.176;2023-07-20T13:05:07;96483.31;;;26.75;27.10
80405;BME280;69733;48.744;9.176;2023-07-20T13:07:36;96476.72;;;26.76;27.07
80405;BME280;69733;48.744;9.176;2023-07-20T13:10:03;96480.16;;;26.73;27.10